Time;durP1;ratioP1;P1;durP2;ratioP2;P2;SDS_P1;SDS_P2;PMS_P1;PMS_P2;Temp;Humidity;BMP_temperature;BMP_pressure;BME280_temperature;BME280_humidity;BME280_pressure;Samples;Min_cycle;Max_cycle;Signal;HPM_P1;HPM_P2
2022/03/25 00:01:59;;;;;;;51.55;33.60;;;4.70;99.90;;;;;;4961846;29;20268;-58
2022/03/25 00:04:25;;;;;;;37.92;25.50;;;4.70;99.90;;;;;;4964419;28;20039;-58
2022/03/25 00:06:51;;;;;;;42.03;27.88;;;4.70;99.90;;;;;;4962929;29;20058;-58
2022/03/25 00:09:17;;;;;;;57.50;34.03;;;4.60;99.90;;;;;;4964400;29;20083;-58
2022/03/25 00:11:42;;;;;;;51.67;31.95;;;4.60;99.90;;;;;;4962185;29;20648;-58
2022/03/25 00:14:09;;;;;;;58.83;35.25;;;4.60;99.90;;;;;;4963432;29;20621;-58
2022/03/25 00:16:35;;;;;;;43.45;28.92;;;4.70;99.90;;;;;;4963514;28;20039;-58
2022/03/25 00:19:01;;;;;;;41.40;26.52;;;4.60;99.90;;;;;;4963009;28;20506;-58
2022/03/25 00:21:26;;;;;;;34.17;24.77;;;4.60;99.90;;;;;;4964069;29;20191;-58
2022/03/25 00:23:52;;;;;;;32.65;24.02;;;4.50;99.90;;;;;;4962853;29;20122;-58
2022/03/25 00:26:17;;;;;;;34.35;24.83;;;4.50;99.90;;;;;;4962807;29;20039;-58
2022/03/25 00:28:43;;;;;;;39.97;25.67;;;4.60;99.90;;;;;;4962735;29;20413;-58
2022/03/25 00:31:09;;;;;;;40.88;25.13;;;4.50;99.90;;;;;;4963583;28;20415;-58
2022/03/25 00:33:36;;;;;;;37.20;25.95;;;4.50;99.90;;;;;;4963598;29;20146;-58
2022/03/25 00:36:03;;;;;;;33.47;23.52;;;4.40;99.90;;;;;;4961084;29;20055;-58
2022/03/25 00:38:29;;;;;;;35.15;23.63;;;4.30;99.90;;;;;;4963747;28;20039;-59
2022/03/25 00:40:55;;;;;;;32.22;23.02;;;4.10;99.90;;;;;;4962294;28;20051;-59
2022/03/25 00:43:24;;;;;;;29.95;21.55;;;3.80;99.90;;;;;;4963830;29;20047;-58
2022/03/25 00:45:51;;;;;;;29.25;21.10;;;3.90;99.90;;;;;;4962387;28;20051;-58
2022/03/25 00:48:17;;;;;;;30.13;21.00;;;3.90;99.90;;;;;;4963126;29;20051;-58
2022/03/25 00:50:43;;;;;;;30.95;21.65;;;3.90;99.90;;;;;;4961699;29;20045;-59
2022/03/25 00:53:08;;;;;;;33.13;22.02;;;3.90;99.90;;;;;;4962237;28;20130;-58
2022/03/25 00:55:34;;;;;;;35.50;23.80;;;4.00;99.90;;;;;;4963611;29;20054;-58
2022/03/25 00:58:01;;;;;;;34.40;23.20;;;3.90;99.90;;;;;;4962304;29;20051;-58
2022/03/25 01:00:27;;;;;;;35.88;23.85;;;3.90;99.90;;;;;;4963565;28;20039;-58
2022/03/25 01:02:53;;;;;;;37.45;23.77;;;3.70;99.90;;;;;;4961304;28;20050;-58
2022/03/25 01:05:19;;;;;;;38.50;25.73;;;3.70;99.90;;;;;;4962760;29;20079;-58
2022/03/25 01:07:45;;;;;;;34.35;24.20;;;3.80;99.90;;;;;;4962698;28;20050;-58
2022/03/25 01:10:11;;;;;;;34.58;23.05;;;3.80;99.90;;;;;;4962226;29;20094;-57
2022/03/25 01:12:37;;;;;;;38.22;24.35;;;3.70;99.90;;;;;;4963041;28;20095;-58
2022/03/25 01:15:04;;;;;;;34.15;24.08;;;3.80;99.90;;;;;;4962022;28;20043;-59
2022/03/25 01:17:30;;;;;;;36.83;26.50;;;3.80;99.90;;;;;;4962831;28;20103;-58
2022/03/25 01:19:56;;;;;;;37.42;24.50;;;3.80;99.90;;;;;;4961782;28;20051;-58
2022/03/25 01:22:22;;;;;;;32.72;22.92;;;3.80;99.90;;;;;;4962839;28;20047;-58
2022/03/25 01:24:49;;;;;;;41.10;25.60;;;4.20;99.90;;;;;;4962207;28;20043;-58
2022/03/25 01:27:15;;;;;;;43.75;27.58;;;3.90;99.90;;;;;;4962000;28;20043;-57
2022/03/25 01:29:41;;;;;;;40.33;25.30;;;3.90;99.90;;;;;;4962618;28;20055;-59
2022/03/25 01:32:08;;;;;;;33.88;23.42;;;3.90;99.90;;;;;;4961673;28;20078;-58
2022/03/25 01:34:34;;;;;;;39.47;24.90;;;3.80;99.90;;;;;;4962767;29;20051;-58
2022/03/25 01:37:01;;;;;;;43.67;28.30;;;3.80;99.90;;;;;;4961589;28;20074;-58
2022/03/25 01:39:27;;;;;;;48.83;30.23;;;3.80;99.90;;;;;;4961074;29;20047;-58
2022/03/25 01:41:54;;;;;;;45.35;28.42;;;3.80;99.90;;;;;;4960558;29;20113;-58
2022/03/25 01:44:27;;;;;;;45.55;26.90;;;3.80;99.90;;;;;;4961841;28;20059;-58
2022/03/25 01:46:57;;;;;;;40.90;26.50;;;3.70;99.90;;;;;;4962262;28;20047;-58
2022/03/25 01:49:23;;;;;;;44.13;28.08;;;3.70;99.90;;;;;;4961167;28;20043;-58
2022/03/25 01:51:51;;;;;;;38.70;25.75;;;3.70;99.90;;;;;;4962505;28;20054;-58
2022/03/25 01:54:21;;;;;;;46.30;29.85;;;3.70;99.90;;;;;;4961061;28;20090;-58
2022/03/25 01:57:00;;;;;;;42.28;26.40;;;3.70;99.90;;;;;;4961825;28;20519;-58
2022/03/25 01:59:26;;;;;;;41.78;26.42;;;3.60;99.90;;;;;;4962089;28;20039;-58
2022/03/25 02:01:54;;;;;;;45.13;28.55;;;3.70;99.90;;;;;;4961020;28;20063;-58
2022/03/25 02:04:21;;;;;;;37.45;24.60;;;3.30;99.90;;;;;;4962263;28;20066;-58
2022/03/25 02:06:47;;;;;;;36.22;24.02;;;3.40;99.90;;;;;;4960990;28;20043;-58
2022/03/25 02:09:13;;;;;;;39.47;25.92;;;3.30;99.90;;;;;;4962390;28;20983;-58
2022/03/25 02:11:39;;;;;;;83.43;28.27;;;3.20;99.90;;;;;;4961277;29;20043;-58
2022/03/25 02:14:04;;;;;;;46.53;30.55;;;3.10;99.90;;;;;;4961228;28;20043;-58
2022/03/25 02:16:38;;;;;;;42.83;27.75;;;3.20;99.90;;;;;;4960149;29;20050;-58
2022/03/25 02:19:04;;;;;;;54.55;24.55;;;3.10;99.90;;;;;;4960751;28;20043;-58
2022/03/25 02:21:31;;;;;;;42.78;27.15;;;2.90;99.90;;;;;;4962015;29;20051;-58
2022/03/25 02:23:58;;;;;;;38.67;24.17;;;3.10;99.90;;;;;;4960619;28;20071;-58
2022/03/25 02:26:24;;;;;;;46.95;24.30;;;3.00;99.90;;;;;;4961733;28;20367;-58
2022/03/25 02:28:49;;;;;;;106.85;26.25;;;2.90;99.90;;;;;;4960647;28;20538;-58
2022/03/25 02:31:17;;;;;;;149.05;28.50;;;2.80;99.90;;;;;;4961281;28;20404;-58
2022/03/25 02:33:43;;;;;;;49.00;25.30;;;2.90;99.90;;;;;;4961390;29;20430;-58
2022/03/25 02:36:09;;;;;;;45.47;26.83;;;3.00;99.90;;;;;;4960583;28;20046;-58
2022/03/25 02:38:35;;;;;;;58.63;31.02;;;3.00;99.90;;;;;;4961843;28;20110;-58
2022/03/25 02:41:01;;;;;;;47.20;29.00;;;2.90;99.90;;;;;;4960209;28;20070;-58
2022/03/25 02:43:27;;;;;;;40.45;27.15;;;3.00;99.90;;;;;;4961670;29;20043;-58
2022/03/25 02:45:53;;;;;;;42.67;27.90;;;3.00;99.90;;;;;;4960360;29;20053;-58
2022/03/25 02:48:18;;;;;;;41.83;25.45;;;3.00;99.90;;;;;;4959680;28;20095;-58
2022/03/25 02:50:46;;;;;;;44.13;27.52;;;3.10;99.90;;;;;;4961232;29;20075;-58
2022/03/25 02:53:13;;;;;;;42.25;27.52;;;3.00;99.90;;;;;;4959200;29;20074;-58
2022/03/25 02:55:39;;;;;;;38.70;26.15;;;2.90;99.90;;;;;;4961438;28;20075;-58
2022/03/25 02:58:05;;;;;;;39.75;25.98;;;2.90;99.90;;;;;;4960148;28;20035;-58
2022/03/25 03:00:31;;;;;;;40.95;26.92;;;3.00;99.90;;;;;;4961516;28;20043;-58
2022/03/25 03:03:00;;;;;;;39.75;26.08;;;2.90;99.90;;;;;;4960534;28;20062;-58
2022/03/25 03:05:29;;;;;;;46.55;29.17;;;3.10;99.90;;;;;;4960753;29;20039;-58
2022/03/25 03:07:55;;;;;;;40.22;26.33;;;3.10;99.90;;;;;;4960946;28;20439;-58
2022/03/25 03:10:22;;;;;;;42.40;27.17;;;3.00;99.90;;;;;;4960034;29;20039;-59
2022/03/25 03:12:48;;;;;;;44.97;28.05;;;3.00;99.90;;;;;;4961275;28;20077;-58
2022/03/25 03:15:17;;;;;;;49.70;30.35;;;3.10;99.90;;;;;;4960412;28;20039;-58
2022/03/25 03:17:48;;;;;;;46.22;29.23;;;3.10;99.90;;;;;;4961238;28;20099;-59
2022/03/25 03:20:16;;;;;;;41.53;27.23;;;3.10;99.90;;;;;;4960487;28;20043;-58
2022/03/25 03:22:43;;;;;;;38.97;26.00;;;3.10;99.90;;;;;;4959270;29;20057;-57
2022/03/25 03:25:12;;;;;;;38.97;24.70;;;3.00;99.90;;;;;;4959676;29;20079;-58
2022/03/25 03:27:38;;;;;;;36.10;23.70;;;2.90;99.90;;;;;;4962621;28;20110;-57
2022/03/25 03:30:07;;;;;;;39.20;23.33;;;2.90;99.90;;;;;;4964958;28;20126;-58
2022/03/25 03:32:33;;;;;;;96.22;27.10;;;2.70;99.90;;;;;;4963580;28;20228;-58
2022/03/25 03:34:58;;;;;;;44.25;27.08;;;2.60;99.90;;;;;;4947480;28;20122;-58
2022/03/25 03:37:25;;;;;;;48.60;28.20;;;2.70;99.90;;;;;;4964064;29;20086;-58
2022/03/25 03:39:51;;;;;;;45.30;28.20;;;2.60;99.90;;;;;;4963007;29;20047;-59
2022/03/25 03:42:17;;;;;;;45.53;28.02;;;2.60;99.90;;;;;;4964305;28;20047;-58
2022/03/25 03:44:43;;;;;;;74.60;29.95;;;2.70;99.90;;;;;;4963640;28;20107;-58
2022/03/25 03:47:10;;;;;;;50.40;28.35;;;2.50;99.90;;;;;;4964682;29;20039;-58
2022/03/25 03:49:37;;;;;;;47.70;27.85;;;2.50;99.90;;;;;;4963492;28;20416;-58
2022/03/25 03:52:04;;;;;;;50.42;29.42;;;2.50;99.90;;;;;;4964706;28;20043;-58
2022/03/25 03:54:31;;;;;;;46.10;28.33;;;2.70;99.90;;;;;;4963518;28;20083;-58
2022/03/25 03:56:56;;;;;;;41.72;25.65;;;2.60;99.90;;;;;;4962485;29;20513;-58
2022/03/25 03:59:22;;;;;;;43.50;27.33;;;2.70;99.90;;;;;;4964221;29;20099;-58
2022/03/25 04:01:48;;;;;;;39.05;26.08;;;2.70;99.90;;;;;;4963377;29;20032;-58
2022/03/25 04:04:14;;;;;;;41.42;26.40;;;2.70;99.90;;;;;;4964258;29;20484;-58
2022/03/25 04:06:40;;;;;;;40.47;26.17;;;2.70;99.90;;;;;;4963158;28;20079;-58
2022/03/25 04:09:06;;;;;;;45.05;29.60;;;2.60;99.90;;;;;;4964346;28;20043;-58
2022/03/25 04:11:31;;;;;;;41.47;26.75;;;2.70;99.90;;;;;;4963214;29;20050;-57
2022/03/25 04:13:57;;;;;;;36.60;23.92;;;2.60;99.90;;;;;;4963617;29;20055;-58
2022/03/25 04:16:23;;;;;;;31.63;22.13;;;2.70;99.90;;;;;;4963722;28;20047;-57
2022/03/25 04:18:49;;;;;;;37.55;24.15;;;2.60;99.90;;;;;;4962831;29;20046;-58
2022/03/25 04:21:15;;;;;;;39.60;24.52;;;2.50;99.90;;;;;;4964082;29;20051;-58
2022/03/25 04:23:41;;;;;;;36.65;23.38;;;2.50;99.90;;;;;;4962812;28;20074;-58
2022/03/25 04:26:06;;;;;;;38.55;24.20;;;2.50;99.90;;;;;;4964111;29;20133;-59
2022/03/25 04:28:32;;;;;;;36.42;23.30;;;2.50;99.90;;;;;;4962613;28;20062;-58
2022/03/25 04:30:59;;;;;;;35.72;22.67;;;2.60;99.90;;;;;;4962205;28;20098;-58
2022/03/25 04:33:24;;;;;;;37.85;23.88;;;2.40;99.90;;;;;;4963151;29;20491;-58
2022/03/25 04:35:50;;;;;;;35.88;24.10;;;2.50;99.90;;;;;;4962682;29;20051;-60
2022/03/25 04:38:16;;;;;;;38.40;23.80;;;2.50;99.90;;;;;;4962329;28;20043;-58
2022/03/25 04:40:42;;;;;;;35.88;22.83;;;2.40;99.90;;;;;;4960909;29;20039;-58
2022/03/25 04:43:08;;;;;;;37.55;24.23;;;2.50;99.90;;;;;;4963859;28;20122;-58
2022/03/25 04:45:35;;;;;;;39.53;24.35;;;2.50;99.90;;;;;;4962205;29;20048;-58
2022/03/25 04:48:01;;;;;;;43.60;26.33;;;2.50;99.90;;;;;;4963299;28;20143;-58
2022/03/25 04:50:27;;;;;;;42.60;26.02;;;2.50;99.90;;;;;;4963012;28;20047;-58
2022/03/25 04:52:53;;;;;;;46.28;27.38;;;2.60;99.90;;;;;;4962507;28;20078;-57
2022/03/25 04:55:20;;;;;;;44.03;26.50;;;2.60;99.90;;;;;;4963391;28;20052;-58
2022/03/25 04:57:47;;;;;;;44.85;26.67;;;2.50;99.90;;;;;;4962211;28;20052;-58
2022/03/25 05:00:16;;;;;;;44.78;27.38;;;2.70;99.90;;;;;;4963608;28;20075;-58
2022/03/25 05:02:41;;;;;;;42.08;26.23;;;2.70;99.90;;;;;;4962075;28;20043;-58
2022/03/25 05:05:07;;;;;;;40.50;25.73;;;2.70;99.90;;;;;;4963079;29;20054;-58
2022/03/25 05:07:34;;;;;;;45.17;27.23;;;2.60;99.90;;;;;;4962509;29;20075;-57
2022/03/25 05:10:00;;;;;;;43.28;26.92;;;2.60;99.90;;;;;;4962247;29;20043;-58
2022/03/25 05:12:30;;;;;;;42.38;27.13;;;2.60;99.90;;;;;;4962960;28;20491;-58
2022/03/25 05:14:55;;;;;;;41.30;25.15;;;2.50;99.90;;;;;;4961728;28;20050;-57
2022/03/25 05:17:21;;;;;;;47.13;27.58;;;2.60;99.90;;;;;;4963053;28;20110;-58
2022/03/25 05:19:47;;;;;;;41.25;24.90;;;2.60;99.90;;;;;;4961453;28;20106;-58
2022/03/25 05:22:14;;;;;;;40.58;25.88;;;2.50;99.90;;;;;;4962825;29;20047;-58
2022/03/25 05:24:40;;;;;;;45.88;26.15;;;2.50;99.90;;;;;;4962389;28;20044;-58
2022/03/25 05:27:06;;;;;;;47.83;28.23;;;2.60;99.90;;;;;;4962118;28;20047;-58
2022/03/25 05:29:32;;;;;;;48.75;28.10;;;2.60;99.90;;;;;;4960986;29;20150;-58
2022/03/25 05:31:58;;;;;;;43.40;26.67;;;2.60;99.90;;;;;;4961427;28;20126;-58
2022/03/25 05:34:23;;;;;;;40.50;24.35;;;2.60;99.90;;;;;;4962757;29;20043;-58
2022/03/25 05:36:49;;;;;;;40.70;23.50;;;2.60;99.90;;;;;;4961393;29;20043;-58
2022/03/25 05:39:15;;;;;;;47.20;26.58;;;2.60;99.90;;;;;;4962699;28;20570;-58
2022/03/25 05:41:42;;;;;;;49.65;27.35;;;2.70;99.90;;;;;;4960406;29;20098;-58
2022/03/25 05:44:08;;;;;;;44.67;27.02;;;2.80;99.90;;;;;;4960435;29;20054;-58
2022/03/25 05:46:34;;;;;;;40.85;24.92;;;2.80;99.90;;;;;;4962077;28;20089;-58
2022/03/25 05:49:00;;;;;;;40.70;26.23;;;2.80;99.90;;;;;;4959459;28;20089;-58
2022/03/25 05:51:26;;;;;;;40.85;24.40;;;2.70;99.90;;;;;;4962445;29;20043;-58
2022/03/25 05:53:52;;;;;;;44.08;26.50;;;2.70;99.90;;;;;;4960986;29;20273;-58
2022/03/25 05:56:17;;;;;;;43.72;24.85;;;2.70;99.90;;;;;;4962533;28;20043;-58
2022/03/25 05:58:43;;;;;;;45.15;26.98;;;2.70;99.90;;;;;;4960059;29;20047;-58
2022/03/25 06:01:09;;;;;;;46.55;27.80;;;2.80;99.90;;;;;;4961541;28;20043;-58
2022/03/25 06:03:35;;;;;;;49.88;26.48;;;2.80;99.90;;;;;;4962021;29;20043;-58
2022/03/25 06:06:03;;;;;;;46.30;27.00;;;2.80;99.90;;;;;;4959540;29;20043;-59
2022/03/25 06:08:30;;;;;;;50.38;28.42;;;2.90;99.90;;;;;;4962379;28;20050;-58
2022/03/25 06:10:56;;;;;;;54.17;29.08;;;2.90;99.90;;;;;;4959243;29;20043;-57
2022/03/25 06:13:23;;;;;;;53.55;30.10;;;3.00;99.90;;;;;;4960701;29;20051;-58
2022/03/25 06:15:49;;;;;;;61.42;34.22;;;3.10;99.90;;;;;;4960921;28;20074;-57
2022/03/25 06:18:16;;;;;;;55.33;31.13;;;3.20;99.90;;;;;;4961431;28;20054;-57
2022/03/25 06:20:42;;;;;;;56.38;29.95;;;3.30;99.90;;;;;;4960377;29;20059;-57
2022/03/25 06:23:07;;;;;;;54.03;29.35;;;3.30;99.90;;;;;;4960710;28;20047;-58
2022/03/25 06:25:33;;;;;;;51.50;28.70;;;3.30;99.90;;;;;;4961931;29;20047;-58
2022/03/25 06:28:01;;;;;;;52.92;29.67;;;3.40;99.90;;;;;;4960358;29;20055;-58
2022/03/25 06:30:31;;;;;;;54.13;31.17;;;3.50;99.90;;;;;;4961721;28;20135;-58
2022/03/25 06:32:58;;;;;;;49.90;29.27;;;3.60;99.90;;;;;;4960981;28;20136;-57
2022/03/25 06:35:24;;;;;;;54.40;28.80;;;3.70;99.90;;;;;;4959830;29;20039;-58
2022/03/25 06:37:51;;;;;;;56.45;29.65;;;3.80;99.90;;;;;;4961501;28;20073;-58
2022/03/25 06:40:19;;;;;;;56.83;29.80;;;3.90;99.90;;;;;;4959218;29;20044;-58
2022/03/25 06:42:45;;;;;;;51.13;30.17;;;4.00;99.90;;;;;;4961656;28;20404;-58
2022/03/25 06:45:15;;;;;;;53.75;29.92;;;4.00;99.90;;;;;;4960327;28;20123;-58
2022/03/25 06:47:41;;;;;;;56.50;30.90;;;4.00;99.90;;;;;;4961291;28;20054;-57
2022/03/25 06:50:08;;;;;;;56.03;32.25;;;4.20;99.90;;;;;;4960738;28;20526;-57
2022/03/25 06:52:35;;;;;;;57.63;32.40;;;4.30;99.90;;;;;;4960879;28;20070;-57
2022/03/25 06:55:01;;;;;;;61.80;32.05;;;4.40;99.90;;;;;;4961153;28;20055;-57
2022/03/25 06:57:27;;;;;;;59.25;31.67;;;4.50;99.90;;;;;;4958733;29;20102;-57
2022/03/25 06:59:53;;;;;;;58.13;32.15;;;4.60;99.90;;;;;;4961584;29;20042;-57
2022/03/25 07:02:19;;;;;;;55.03;32.30;;;4.60;99.90;;;;;;4959441;28;20039;-58
2022/03/25 07:04:45;;;;;;;55.90;32.10;;;4.90;99.90;;;;;;4961644;29;20046;-57
2022/03/25 07:07:11;;;;;;;58.95;34.20;;;4.90;99.90;;;;;;4960372;29;20057;-56
2022/03/25 07:09:37;;;;;;;55.95;30.45;;;5.00;99.90;;;;;;4960638;28;20067;-58
2022/03/25 07:12:04;;;;;;;57.90;33.05;;;5.10;99.90;;;;;;4959529;29;20079;-56
2022/03/25 07:14:30;;;;;;;56.42;31.67;;;5.30;99.90;;;;;;4960097;28;20102;-58
2022/03/25 07:16:55;;;;;;;52.20;31.65;;;5.40;99.90;;;;;;4961051;28;20044;-58
2022/03/25 07:19:25;;;;;;;53.08;30.20;;;5.40;99.90;;;;;;4958718;29;20035;-58
2022/03/25 07:21:52;;;;;;;53.20;29.45;;;5.60;99.90;;;;;;4961293;28;20062;-57
2022/03/25 07:24:17;;;;;;;52.08;30.23;;;5.60;99.90;;;;;;4958812;29;20057;-57
2022/03/25 07:26:43;;;;;;;53.40;31.13;;;5.80;99.90;;;;;;4960666;29;20122;-58
2022/03/25 07:29:10;;;;;;;52.45;29.38;;;5.90;99.90;;;;;;4960817;29;20056;-57
2022/03/25 07:31:37;;;;;;;52.75;28.83;;;6.00;99.90;;;;;;4959854;28;20051;-57
2022/03/25 07:34:03;;;;;;;47.15;29.00;;;6.10;99.90;;;;;;4961324;28;20048;-58
2022/03/25 07:36:29;;;;;;;46.75;28.48;;;6.10;99.90;;;;;;4959893;29;20062;-58
2022/03/25 07:38:55;;;;;;;49.30;29.27;;;6.30;99.90;;;;;;4961238;28;20047;-58
2022/03/25 07:41:21;;;;;;;52.08;30.10;;;6.40;99.90;;;;;;4959953;28;20051;-57
2022/03/25 07:43:46;;;;;;;49.85;29.38;;;6.50;99.90;;;;;;4960533;29;20047;-57
2022/03/25 07:46:12;;;;;;;50.15;28.08;;;6.70;99.90;;;;;;4960101;29;20055;-57
2022/03/25 07:48:38;;;;;;;47.83;28.60;;;6.70;99.90;;;;;;4960023;28;20051;-58
2022/03/25 07:51:04;;;;;;;46.40;27.10;;;6.90;99.90;;;;;;4960956;28;20558;-57
2022/03/25 07:53:32;;;;;;;46.88;26.08;;;7.00;99.90;;;;;;4959502;28;20388;-57
2022/03/25 07:55:58;;;;;;;46.72;27.17;;;7.10;99.90;;;;;;4960873;29;20058;-58
2022/03/25 07:58:25;;;;;;;51.40;31.02;;;7.20;99.90;;;;;;4959845;28;20047;-60
2022/03/25 08:00:51;;;;;;;46.13;27.25;;;7.30;99.90;;;;;;4960642;28;20051;-58
2022/03/25 08:03:18;;;;;;;49.22;28.50;;;7.50;99.90;;;;;;4960359;28;20039;-57
2022/03/25 08:05:45;;;;;;;43.35;27.27;;;7.50;99.90;;;;;;4958660;29;20103;-58
2022/03/25 08:08:11;;;;;;;45.72;26.10;;;7.70;99.90;;;;;;4960671;28;20090;-57
2022/03/25 08:10:41;;;;;;;39.85;25.55;;;7.60;99.90;;;;;;4959745;28;20571;-58
2022/03/25 08:13:07;;;;;;;45.00;26.65;;;7.70;99.90;;;;;;4962364;28;20079;-58
2022/03/25 08:15:33;;;;;;;43.90;26.23;;;7.70;99.90;;;;;;4961642;29;20051;-58
2022/03/25 08:18:03;;;;;;;39.97;24.73;;;7.70;99.90;;;;;;4963962;28;20416;-58
2022/03/25 08:20:39;;;;;;;43.97;26.50;;;7.70;99.90;;;;;;4963638;28;20054;-58
2022/03/25 08:29:04;;;;;;;41.20;23.13;;;8.10;99.90;;;;;;4942219;29;20457;-57
2022/03/25 08:31:30;;;;;;;37.92;22.40;;;8.10;99.90;;;;;;4943795;29;20514;-58
2022/03/25 08:33:55;;;;;;;43.78;23.48;;;8.30;99.90;;;;;;4943199;29;20055;-58
2022/03/25 08:36:21;;;;;;;36.28;22.88;;;8.40;99.90;;;;;;4943535;29;20054;-58
2022/03/25 08:38:47;;;;;;;33.10;22.00;;;8.40;99.90;;;;;;4943652;29;20050;-57
2022/03/25 08:41:13;;;;;;;36.33;22.05;;;8.50;99.90;;;;;;4943539;29;20082;-57
2022/03/25 08:43:39;;;;;;;35.97;22.58;;;8.50;99.90;;;;;;4944084;29;20516;-58
2022/03/25 08:46:07;;;;;;;39.60;22.23;;;8.60;99.90;;;;;;4942656;29;20044;-57
2022/03/25 08:48:33;;;;;;;33.85;19.70;;;8.70;99.90;;;;;;4943534;29;20047;-58
2022/03/25 08:51:02;;;;;;;35.35;21.15;;;8.80;99.90;;;;;;4944482;29;20083;-58
2022/03/25 08:53:28;;;;;;;35.55;20.05;;;8.90;99.90;;;;;;4943113;29;20040;-58
2022/03/25 08:55:53;;;;;;;34.28;20.70;;;8.90;99.90;;;;;;4944454;29;20119;-58
2022/03/25 08:58:19;;;;;;;33.60;20.17;;;9.00;99.90;;;;;;4943120;29;20059;-58
2022/03/25 09:00:45;;;;;;;34.03;20.08;;;9.10;99.90;;;;;;4942728;29;20086;-57
2022/03/25 09:03:12;;;;;;;38.95;20.27;;;9.10;99.90;;;;;;4942184;29;20083;-57
2022/03/25 09:05:38;;;;;;;38.28;19.85;;;9.20;99.90;;;;;;4961255;29;20051;-57
2022/03/25 09:08:04;;;;;;;35.28;21.17;;;9.30;99.90;;;;;;4963276;28;20524;-57
2022/03/25 09:10:30;;;;;;;36.22;19.08;;;9.30;99.90;;;;;;4961999;28;20074;-57
2022/03/25 09:12:56;;;;;;;33.50;18.75;;;9.40;99.90;;;;;;4963449;28;20122;-58
2022/03/25 09:15:22;;;;;;;33.97;19.75;;;9.40;99.90;;;;;;4962062;28;20047;-56
2022/03/25 09:17:49;;;;;;;29.42;17.85;;;9.50;99.90;;;;;;4961542;29;20051;-57
2022/03/25 09:20:15;;;;;;;32.83;18.83;;;9.50;99.90;;;;;;4962335;28;20363;-57
2022/03/25 09:22:41;;;;;;;34.50;19.38;;;9.50;99.90;;;;;;4962342;29;20047;-58
2022/03/25 09:25:08;;;;;;;31.48;17.83;;;9.60;99.90;;;;;;4962057;28;20082;-57
2022/03/25 09:27:34;;;;;;;31.52;18.98;;;9.70;99.90;;;;;;4960625;29;20083;-57
2022/03/25 09:30:00;;;;;;;34.20;18.67;;;9.70;99.90;;;;;;4961635;29;20055;-58
2022/03/25 09:32:26;;;;;;;32.35;17.92;;;9.80;99.90;;;;;;4961494;29;20548;-57
2022/03/25 09:35:10;;;;;;;29.23;17.08;;;9.90;99.90;;;;;;4962091;28;20556;-59
2022/03/25 09:37:39;;;;;;;35.40;18.60;;;10.00;99.90;;;;;;4962257;28;20082;-58
2022/03/25 09:40:08;;;;;;;30.48;17.25;;;10.10;99.90;;;;;;4961801;28;20106;-58
2022/03/25 09:42:35;;;;;;;31.42;18.35;;;10.20;99.90;;;;;;4962480;28;20052;-58
2022/03/25 09:45:03;;;;;;;30.58;17.02;;;10.30;99.90;;;;;;4961384;28;20051;-58
2022/03/25 09:47:30;;;;;;;34.05;18.27;;;10.50;99.90;;;;;;4960946;29;20051;-58
2022/03/25 09:49:56;;;;;;;29.05;16.13;;;10.50;99.90;;;;;;4961836;28;20039;-57
2022/03/25 09:52:23;;;;;;;27.75;16.58;;;10.50;99.90;;;;;;4961808;28;20046;-57
2022/03/25 09:54:48;;;;;;;29.33;18.13;;;10.50;99.90;;;;;;4962150;29;20047;-57
2022/03/25 09:57:14;;;;;;;32.13;17.58;;;10.60;99.90;;;;;;4961243;29;20368;-58
2022/03/25 09:59:40;;;;;;;30.63;16.88;;;10.70;99.90;;;;;;4962489;28;20114;-57
2022/03/25 10:02:06;;;;;;;30.25;17.70;;;10.80;99.90;;;;;;4960928;29;20126;-57
2022/03/25 10:04:50;;;;;;;26.67;16.88;;;10.70;99.90;;;;;;4961088;28;20078;-56
2022/03/25 10:07:21;;;;;;;30.13;17.95;;;10.90;99.90;;;;;;4960086;29;20050;-57
2022/03/25 10:09:49;;;;;;;32.88;17.55;;;10.80;99.90;;;;;;4961312;28;20043;-58
2022/03/25 10:12:26;;;;;;;28.60;17.48;;;11.00;99.90;;;;;;4962089;28;20047;-58
2022/03/25 10:15:15;;;;;;;30.52;16.63;;;11.20;99.90;;;;;;4960894;28;20043;-57
2022/03/25 10:17:46;;;;;;;35.97;17.65;;;11.20;99.90;;;;;;4961841;28;20039;-57
2022/03/25 10:20:12;;;;;;;31.02;17.80;;;11.20;99.90;;;;;;4959808;29;20112;-57
2022/03/25 10:22:38;;;;;;;32.03;20.05;;;11.30;99.90;;;;;;4961180;28;20074;-58
2022/03/25 10:25:09;;;;;;;31.05;17.58;;;11.30;99.90;;;;;;4960403;29;20129;-58
2022/03/25 10:27:35;;;;;;;30.02;17.92;;;11.30;99.90;;;;;;4959028;29;20058;-58
2022/03/25 10:30:05;;;;;;;29.65;16.95;;;11.50;99.90;;;;;;4961535;28;20498;-58
2022/03/25 10:32:38;;;;;;;29.38;17.95;;;11.50;99.90;;;;;;4960566;28;20104;-57
2022/03/25 10:35:10;;;;;;;31.67;16.65;;;11.50;99.90;;;;;;4959998;28;20132;-58
2022/03/25 10:37:38;;;;;;;27.63;16.60;;;11.70;99.90;;;;;;4961104;28;20036;-59
2022/03/25 10:40:07;;;;;;;26.60;16.88;;;11.80;99.90;;;;;;4960754;28;20115;-58
2022/03/25 10:42:33;;;;;;;27.90;17.85;;;11.80;99.90;;;;;;4960330;29;20043;-60
2022/03/25 10:44:59;;;;;;;29.83;17.80;;;11.90;99.90;;;;;;4960551;28;20046;-58
2022/03/25 10:47:27;;;;;;;31.10;16.98;;;12.10;99.90;;;;;;4961611;28;20047;-58
2022/03/25 10:49:54;;;;;;;31.52;17.88;;;12.10;99.90;;;;;;4960631;29;20049;-57
2022/03/25 10:52:32;;;;;;;28.08;17.40;;;12.20;99.90;;;;;;4961255;28;20186;-58
2022/03/25 10:55:17;;;;;;;32.25;19.13;;;12.20;99.90;;;;;;4961521;28;20059;-58
2022/03/25 10:57:51;;;;;;;30.05;17.58;;;12.30;99.90;;;;;;4958788;29;20047;-57
2022/03/25 11:00:18;;;;;;;31.67;18.65;;;12.40;99.90;;;;;;4961725;29;20047;-57
2022/03/25 11:02:45;;;;;;;33.60;18.05;;;12.40;99.90;;;;;;4960437;28;20036;-58
2022/03/25 11:05:13;;;;;;;32.05;19.40;;;12.50;99.90;;;;;;4959217;29;20047;-57
2022/03/25 11:07:41;;;;;;;31.27;18.75;;;12.50;99.90;;;;;;4961115;28;20410;-58
2022/03/25 11:10:07;;;;;;;30.42;16.52;;;12.60;99.90;;;;;;4960243;28;20043;-58
2022/03/25 11:12:33;;;;;;;32.38;18.63;;;12.60;99.90;;;;;;4961159;28;20047;-58
2022/03/25 11:15:00;;;;;;;31.45;17.67;;;12.70;99.90;;;;;;4958638;29;20105;-58
2022/03/25 11:17:26;;;;;;;33.60;17.05;;;12.70;99.90;;;;;;4959685;29;20047;-58
2022/03/25 11:19:53;;;;;;;28.90;15.85;;;12.80;99.90;;;;;;4960164;29;20095;-57
2022/03/25 11:22:22;;;;;;;27.00;14.02;;;12.90;99.90;;;;;;4959219;29;20051;-58
2022/03/25 11:24:53;;;;;;;27.83;15.93;;;12.90;99.90;;;;;;4960807;28;20062;-58
2022/03/25 11:27:23;;;;;;;28.08;15.20;;;13.00;99.90;;;;;;4960129;28;20043;-57
2022/03/25 11:29:53;;;;;;;27.15;15.07;;;13.10;99.90;;;;;;4961338;28;20087;-57
2022/03/25 11:32:20;;;;;;;26.30;14.95;;;13.00;99.40;;;;;;4959829;28;20054;-58
2022/03/25 11:34:54;;;;;;;27.83;16.13;;;13.10;99.90;;;;;;4960910;28;20504;-58
2022/03/25 11:37:21;;;;;;;27.20;16.83;;;13.30;98.70;;;;;;4959005;29;20094;-57
2022/03/25 11:39:48;;;;;;;28.63;14.60;;;13.20;99.10;;;;;;4960110;29;20087;-58
2022/03/25 11:42:38;;;;;;;25.13;15.18;;;13.30;99.90;;;;;;4960799;28;20051;-57
2022/03/25 11:45:22;;;;;;;26.73;15.43;;;13.50;97.20;;;;;;4959829;28;20052;-58
2022/03/25 11:48:00;;;;;;;26.05;14.77;;;13.50;96.60;;;;;;4960635;28;20083;-58
2022/03/25 11:50:27;;;;;;;27.67;15.60;;;13.50;96.00;;;;;;4962903;29;20047;-58
2022/03/25 11:52:53;;;;;;;25.65;16.50;;;13.60;97.30;;;;;;4963305;29;20043;-58
2022/03/25 11:55:18;;;;;;;28.38;17.38;;;13.60;96.70;;;;;;4964572;28;20107;-57
2022/03/25 11:57:45;;;;;;;40.85;23.77;;;13.80;98.30;;;;;;4963300;28;20217;-58
2022/03/25 12:00:23;;;;;;;36.88;22.25;;;13.70;98.40;;;;;;4964652;28;20089;-57
2022/03/25 12:03:05;;;;;;;33.65;21.13;;;13.60;98.00;;;;;;4963591;28;20039;-57
2022/03/25 12:05:34;;;;;;;33.83;21.70;;;13.60;98.40;;;;;;4963297;28;20595;-58
2022/03/25 12:08:21;;;;;;;32.10;19.98;;;13.50;99.50;;;;;;4964363;28;20043;-57
2022/03/25 12:10:49;;;;;;;35.40;20.40;;;13.60;96.90;;;;;;4962941;29;20047;-58
2022/03/25 12:13:15;;;;;;;33.13;20.65;;;13.60;98.10;;;;;;4964231;28;20044;-58
2022/03/25 12:15:52;;;;;;;37.25;21.00;;;13.60;97.10;;;;;;4962793;28;20043;-58
2022/03/25 12:18:40;;;;;;;34.30;19.75;;;13.60;96.10;;;;;;4963420;28;20081;-58
2022/03/25 12:21:21;;;;;;;33.40;19.42;;;13.70;96.80;;;;;;4964177;28;20050;-57
2022/03/25 12:23:58;;;;;;;36.33;21.63;;;13.80;95.40;;;;;;4962886;28;20047;-57
2022/03/25 12:26:37;;;;;;;28.67;17.33;;;13.60;93.70;;;;;;4963598;28;20043;-57
2022/03/25 12:29:06;;;;;;;34.58;18.50;;;13.70;94.40;;;;;;4963642;28;20070;-58
2022/03/25 12:31:32;;;;;;;29.38;17.15;;;13.90;94.60;;;;;;4962741;28;20051;-57
2022/03/25 12:34:02;;;;;;;30.50;17.98;;;13.90;94.10;;;;;;4963871;29;20061;-54
2022/03/25 12:36:35;;;;;;;30.20;16.85;;;13.90;92.60;;;;;;4962634;28;20050;-57
2022/03/25 12:39:00;;;;;;;30.30;18.73;;;14.00;92.10;;;;;;4964014;29;20043;-57
2022/03/25 12:41:31;;;;;;;27.85;16.58;;;13.90;91.30;;;;;;4963056;28;20071;-57